sensor_id;sensor_type;location;lat;lon;timestamp;P1;durP1;ratioP1;P2;durP2;ratioP2
73900;SDS011;62235;52.160;7.526;2023-02-15T00:01:14;34.38;;;15.05;;
73900;SDS011;62235;52.160;7.526;2023-02-15T00:03:39;33.03;;;14.45;;
73900;SDS011;62235;52.160;7.526;2023-02-15T00:06:05;33.80;;;14.30;;
73900;SDS011;62235;52.160;7.526;2023-02-15T00:08:30;31.83;;;14.68;;
73900;SDS011;62235;52.160;7.526;2023-02-15T00:11:06;29.60;;;14.07;;
73900;SDS011;62235;52.160;7.526;2023-02-15T00:13:32;27.63;;;13.10;;
73900;SDS011;62235;52.160;7.526;2023-02-15T00:16:01;29.70;;;13.23;;
73900;SDS011;62235;52.160;7.526;2023-02-15T00:18:27;25.92;;;12.23;;
73900;SDS011;62235;52.160;7.526;2023-02-15T00:20:52;28.30;;;13.27;;
73900;SDS011;62235;52.160;7.526;2023-02-15T00:23:18;25.67;;;12.33;;
73900;SDS011;62235;52.160;7.526;2023-02-15T00:25:43;25.63;;;12.43;;
73900;SDS011;62235;52.160;7.526;2023-02-15T00:28:08;27.00;;;12.93;;
73900;SDS011;62235;52.160;7.526;2023-02-15T00:30:34;25.07;;;11.90;;
73900;SDS011;62235;52.160;7.526;2023-02-15T00:32:59;24.13;;;12.03;;
73900;SDS011;62235;52.160;7.526;2023-02-15T00:35:24;24.00;;;11.67;;
73900;SDS011;62235;52.160;7.526;2023-02-15T00:37:50;24.87;;;12.47;;
73900;SDS011;62235;52.160;7.526;2023-02-15T00:40:17;21.73;;;11.23;;
73900;SDS011;62235;52.160;7.526;2023-02-15T00:42:42;24.58;;;11.98;;
73900;SDS011;62235;52.160;7.526;2023-02-15T00:45:08;26.75;;;12.38;;
73900;SDS011;62235;52.160;7.526;2023-02-15T00:47:33;25.25;;;12.30;;
73900;SDS011;62235;52.160;7.526;2023-02-15T00:49:59;23.30;;;13.20;;
73900;SDS011;62235;52.160;7.526;2023-02-15T00:52:24;24.20;;;13.33;;
73900;SDS011;62235;52.160;7.526;2023-02-15T00:54:49;29.63;;;14.90;;
73900;SDS011;62235;52.160;7.526;2023-02-15T00:57:15;27.87;;;14.07;;
73900;SDS011;62235;52.160;7.526;2023-02-15T00:59:40;26.93;;;13.60;;
73900;SDS011;62235;52.160;7.526;2023-02-15T01:02:05;28.93;;;12.23;;
73900;SDS011;62235;52.160;7.526;2023-02-15T01:04:31;23.60;;;11.83;;
73900;SDS011;62235;52.160;7.526;2023-02-15T01:06:56;22.63;;;11.40;;
73900;SDS011;62235;52.160;7.526;2023-02-15T01:09:21;24.53;;;11.50;;
73900;SDS011;62235;52.160;7.526;2023-02-15T01:11:47;28.30;;;13.05;;
73900;SDS011;62235;52.160;7.526;2023-02-15T01:14:12;26.40;;;12.47;;
73900;SDS011;62235;52.160;7.526;2023-02-15T01:16:38;23.15;;;11.43;;
73900;SDS011;62235;52.160;7.526;2023-02-15T01:19:03;27.23;;;14.80;;
73900;SDS011;62235;52.160;7.526;2023-02-15T01:21:29;25.63;;;12.93;;
73900;SDS011;62235;52.160;7.526;2023-02-15T01:23:54;20.23;;;10.70;;
73900;SDS011;62235;52.160;7.526;2023-02-15T01:26:20;22.87;;;11.57;;
73900;SDS011;62235;52.160;7.526;2023-02-15T01:28:45;23.85;;;11.85;;
73900;SDS011;62235;52.160;7.526;2023-02-15T01:31:16;30.50;;;12.98;;
73900;SDS011;62235;52.160;7.526;2023-02-15T01:33:42;28.30;;;12.63;;
73900;SDS011;62235;52.160;7.526;2023-02-15T01:36:08;27.63;;;12.03;;
73900;SDS011;62235;52.160;7.526;2023-02-15T01:38:34;20.30;;;10.70;;
73900;SDS011;62235;52.160;7.526;2023-02-15T01:41:00;23.20;;;11.35;;
73900;SDS011;62235;52.160;7.526;2023-02-15T01:43:48;22.48;;;11.13;;
73900;SDS011;62235;52.160;7.526;2023-02-15T01:46:15;24.15;;;11.68;;
73900;SDS011;62235;52.160;7.526;2023-02-15T01:48:43;24.75;;;11.35;;
73900;SDS011;62235;52.160;7.526;2023-02-15T01:51:12;20.92;;;10.80;;
73900;SDS011;62235;52.160;7.526;2023-02-15T01:53:38;23.95;;;11.43;;
73900;SDS011;62235;52.160;7.526;2023-02-15T01:56:12;21.13;;;10.77;;
73900;SDS011;62235;52.160;7.526;2023-02-15T01:58:40;25.25;;;11.75;;
73900;SDS011;62235;52.160;7.526;2023-02-15T02:01:06;25.77;;;12.57;;
73900;SDS011;62235;52.160;7.526;2023-02-15T02:03:38;20.08;;;10.55;;
73900;SDS011;62235;52.160;7.526;2023-02-15T02:06:10;21.83;;;11.60;;
73900;SDS011;62235;52.160;7.526;2023-02-15T02:08:36;22.42;;;11.40;;
73900;SDS011;62235;52.160;7.526;2023-02-15T02:11:02;20.40;;;10.20;;
73900;SDS011;62235;52.160;7.526;2023-02-15T02:13:27;21.83;;;10.35;;
73900;SDS011;62235;52.160;7.526;2023-02-15T02:15:56;23.25;;;11.55;;
73900;SDS011;62235;52.160;7.526;2023-02-15T02:18:34;24.25;;;10.20;;
73900;SDS011;62235;52.160;7.526;2023-02-15T02:21:55;23.75;;;10.75;;
73900;SDS011;62235;52.160;7.526;2023-02-15T02:24:23;22.48;;;11.38;;
73900;SDS011;62235;52.160;7.526;2023-02-15T02:35:31;21.75;;;10.07;;
73900;SDS011;62235;52.160;7.526;2023-02-15T02:45:55;24.20;;;10.75;;
73900;SDS011;62235;52.160;7.526;2023-02-15T02:50:48;20.50;;;8.93;;
73900;SDS011;62235;52.160;7.526;2023-02-15T02:53:14;22.02;;;9.75;;
73900;SDS011;62235;52.160;7.526;2023-02-15T03:01:13;21.10;;;10.38;;
73900;SDS011;62235;52.160;7.526;2023-02-15T03:06:33;22.67;;;10.20;;
73900;SDS011;62235;52.160;7.526;2023-02-15T03:09:09;20.85;;;10.55;;
73900;SDS011;62235;52.160;7.526;2023-02-15T03:11:39;19.42;;;9.70;;
73900;SDS011;62235;52.160;7.526;2023-02-15T03:14:06;22.33;;;10.18;;
73900;SDS011;62235;52.160;7.526;2023-02-15T03:16:32;22.10;;;9.35;;
73900;SDS011;62235;52.160;7.526;2023-02-15T03:19:01;19.65;;;9.48;;
73900;SDS011;62235;52.160;7.526;2023-02-15T03:21:32;20.05;;;9.95;;
73900;SDS011;62235;52.160;7.526;2023-02-15T03:24:14;21.90;;;10.88;;
73900;SDS011;62235;52.160;7.526;2023-02-15T03:26:43;21.08;;;10.35;;
73900;SDS011;62235;52.160;7.526;2023-02-15T03:29:11;21.25;;;11.32;;
73900;SDS011;62235;52.160;7.526;2023-02-15T03:31:37;21.30;;;10.93;;
73900;SDS011;62235;52.160;7.526;2023-02-15T03:34:06;20.48;;;9.90;;
73900;SDS011;62235;52.160;7.526;2023-02-15T03:43:00;20.50;;;10.25;;
73900;SDS011;62235;52.160;7.526;2023-02-15T03:45:47;19.10;;;8.90;;
73900;SDS011;62235;52.160;7.526;2023-02-15T03:48:25;20.50;;;10.55;;
73900;SDS011;62235;52.160;7.526;2023-02-15T03:51:02;21.95;;;10.73;;
73900;SDS011;62235;52.160;7.526;2023-02-15T03:53:48;24.17;;;11.27;;
73900;SDS011;62235;52.160;7.526;2023-02-15T03:56:15;24.55;;;10.10;;
73900;SDS011;62235;52.160;7.526;2023-02-15T03:58:40;25.00;;;11.20;;
73900;SDS011;62235;52.160;7.526;2023-02-15T04:01:34;19.65;;;9.85;;
73900;SDS011;62235;52.160;7.526;2023-02-15T04:04:19;22.38;;;9.57;;
73900;SDS011;62235;52.160;7.526;2023-02-15T04:06:46;21.70;;;9.88;;
73900;SDS011;62235;52.160;7.526;2023-02-15T04:09:12;19.20;;;8.80;;
73900;SDS011;62235;52.160;7.526;2023-02-15T04:11:56;20.98;;;9.98;;
73900;SDS011;62235;52.160;7.526;2023-02-15T04:14:21;24.52;;;10.77;;
73900;SDS011;62235;52.160;7.526;2023-02-15T04:17:06;18.83;;;9.02;;
73900;SDS011;62235;52.160;7.526;2023-02-15T04:19:32;19.23;;;9.57;;
73900;SDS011;62235;52.160;7.526;2023-02-15T04:22:15;19.58;;;9.77;;
73900;SDS011;62235;52.160;7.526;2023-02-15T04:24:59;23.98;;;10.13;;
73900;SDS011;62235;52.160;7.526;2023-02-15T04:27:37;20.05;;;10.02;;
73900;SDS011;62235;52.160;7.526;2023-02-15T04:30:03;22.83;;;10.10;;
73900;SDS011;62235;52.160;7.526;2023-02-15T04:32:29;20.50;;;9.75;;
73900;SDS011;62235;52.160;7.526;2023-02-15T04:34:55;19.67;;;9.95;;
73900;SDS011;62235;52.160;7.526;2023-02-15T04:37:20;19.80;;;9.60;;
73900;SDS011;62235;52.160;7.526;2023-02-15T04:39:45;19.27;;;9.18;;
73900;SDS011;62235;52.160;7.526;2023-02-15T04:42:11;26.40;;;11.52;;
73900;SDS011;62235;52.160;7.526;2023-02-15T04:44:36;20.33;;;9.70;;
73900;SDS011;62235;52.160;7.526;2023-02-15T04:47:01;18.83;;;8.90;;
73900;SDS011;62235;52.160;7.526;2023-02-15T04:49:27;18.87;;;9.43;;
73900;SDS011;62235;52.160;7.526;2023-02-15T04:51:52;22.15;;;10.73;;
73900;SDS011;62235;52.160;7.526;2023-02-15T04:54:17;22.83;;;9.70;;
73900;SDS011;62235;52.160;7.526;2023-02-15T04:56:43;23.30;;;9.93;;
73900;SDS011;62235;52.160;7.526;2023-02-15T04:59:12;21.65;;;10.15;;
73900;SDS011;62235;52.160;7.526;2023-02-15T05:01:38;20.02;;;9.48;;
73900;SDS011;62235;52.160;7.526;2023-02-15T05:04:03;22.20;;;10.27;;
73900;SDS011;62235;52.160;7.526;2023-02-15T05:06:28;22.80;;;10.65;;
73900;SDS011;62235;52.160;7.526;2023-02-15T05:08:54;22.67;;;10.77;;
73900;SDS011;62235;52.160;7.526;2023-02-15T05:11:20;20.15;;;9.85;;
73900;SDS011;62235;52.160;7.526;2023-02-15T05:13:45;19.33;;;9.10;;
73900;SDS011;62235;52.160;7.526;2023-02-15T05:16:10;20.97;;;10.13;;
73900;SDS011;62235;52.160;7.526;2023-02-15T05:18:36;21.63;;;10.48;;
73900;SDS011;62235;52.160;7.526;2023-02-15T05:21:01;23.15;;;10.07;;
73900;SDS011;62235;52.160;7.526;2023-02-15T05:23:26;22.20;;;10.13;;
73900;SDS011;62235;52.160;7.526;2023-02-15T05:25:52;22.23;;;9.77;;
73900;SDS011;62235;52.160;7.526;2023-02-15T05:28:36;23.38;;;9.68;;
73900;SDS011;62235;52.160;7.526;2023-02-15T05:31:06;27.13;;;12.75;;
73900;SDS011;62235;52.160;7.526;2023-02-15T05:33:33;24.50;;;10.30;;
73900;SDS011;62235;52.160;7.526;2023-02-15T05:35:59;26.15;;;11.15;;
73900;SDS011;62235;52.160;7.526;2023-02-15T05:38:25;21.90;;;9.77;;
73900;SDS011;62235;52.160;7.526;2023-02-15T05:40:50;24.85;;;12.00;;
73900;SDS011;62235;52.160;7.526;2023-02-15T05:43:16;25.80;;;12.38;;
73900;SDS011;62235;52.160;7.526;2023-02-15T05:45:49;26.40;;;12.00;;
73900;SDS011;62235;52.160;7.526;2023-02-15T05:48:16;23.50;;;11.02;;
73900;SDS011;62235;52.160;7.526;2023-02-15T05:50:42;26.48;;;13.13;;
73900;SDS011;62235;52.160;7.526;2023-02-15T05:53:07;27.17;;;12.53;;
73900;SDS011;62235;52.160;7.526;2023-02-15T05:55:32;28.63;;;12.20;;
73900;SDS011;62235;52.160;7.526;2023-02-15T05:57:58;25.63;;;11.57;;
73900;SDS011;62235;52.160;7.526;2023-02-15T06:00:23;24.10;;;11.70;;
73900;SDS011;62235;52.160;7.526;2023-02-15T06:02:49;26.42;;;12.70;;
73900;SDS011;62235;52.160;7.526;2023-02-15T06:05:14;28.73;;;12.57;;
73900;SDS011;62235;52.160;7.526;2023-02-15T06:07:42;26.50;;;13.10;;
73900;SDS011;62235;52.160;7.526;2023-02-15T06:10:08;28.63;;;11.93;;
73900;SDS011;62235;52.160;7.526;2023-02-15T06:12:34;24.05;;;10.73;;
73900;SDS011;62235;52.160;7.526;2023-02-15T06:14:59;25.45;;;11.50;;
73900;SDS011;62235;52.160;7.526;2023-02-15T06:17:24;27.52;;;11.88;;
73900;SDS011;62235;52.160;7.526;2023-02-15T06:19:50;25.92;;;13.77;;
73900;SDS011;62235;52.160;7.526;2023-02-15T06:22:15;24.27;;;10.90;;
73900;SDS011;62235;52.160;7.526;2023-02-15T06:24:41;31.00;;;12.82;;
73900;SDS011;62235;52.160;7.526;2023-02-15T06:27:07;22.95;;;11.43;;
73900;SDS011;62235;52.160;7.526;2023-02-15T06:29:34;28.35;;;12.02;;
73900;SDS011;62235;52.160;7.526;2023-02-15T06:31:59;21.25;;;10.88;;
73900;SDS011;62235;52.160;7.526;2023-02-15T06:34:25;24.00;;;10.63;;
73900;SDS011;62235;52.160;7.526;2023-02-15T06:36:50;21.90;;;10.80;;
73900;SDS011;62235;52.160;7.526;2023-02-15T06:39:15;22.13;;;9.97;;
73900;SDS011;62235;52.160;7.526;2023-02-15T06:41:42;22.67;;;11.65;;
73900;SDS011;62235;52.160;7.526;2023-02-15T06:44:07;26.00;;;11.50;;
73900;SDS011;62235;52.160;7.526;2023-02-15T06:46:32;21.20;;;10.85;;
73900;SDS011;62235;52.160;7.526;2023-02-15T06:48:58;18.97;;;8.70;;
73900;SDS011;62235;52.160;7.526;2023-02-15T06:51:23;21.07;;;10.73;;
73900;SDS011;62235;52.160;7.526;2023-02-15T06:53:48;32.10;;;13.63;;
73900;SDS011;62235;52.160;7.526;2023-02-15T06:56:14;24.93;;;9.70;;
73900;SDS011;62235;52.160;7.526;2023-02-15T06:58:39;26.10;;;11.82;;
73900;SDS011;62235;52.160;7.526;2023-02-15T07:01:06;26.95;;;11.52;;
73900;SDS011;62235;52.160;7.526;2023-02-15T07:03:31;26.65;;;12.05;;
73900;SDS011;62235;52.160;7.526;2023-02-15T07:05:58;27.42;;;14.40;;
73900;SDS011;62235;52.160;7.526;2023-02-15T07:08:25;30.95;;;14.88;;
73900;SDS011;62235;52.160;7.526;2023-02-15T07:10:51;32.50;;;15.35;;
73900;SDS011;62235;52.160;7.526;2023-02-15T07:13:17;27.08;;;13.20;;
73900;SDS011;62235;52.160;7.526;2023-02-15T07:15:43;33.35;;;14.75;;
73900;SDS011;62235;52.160;7.526;2023-02-15T07:18:09;32.28;;;11.57;;
73900;SDS011;62235;52.160;7.526;2023-02-15T07:20:36;30.80;;;14.63;;
73900;SDS011;62235;52.160;7.526;2023-02-15T07:23:01;25.10;;;12.15;;
73900;SDS011;62235;52.160;7.526;2023-02-15T07:25:27;26.27;;;13.20;;
73900;SDS011;62235;52.160;7.526;2023-02-15T07:27:56;26.77;;;12.93;;
73900;SDS011;62235;52.160;7.526;2023-02-15T07:30:22;26.40;;;12.48;;
73900;SDS011;62235;52.160;7.526;2023-02-15T07:32:48;30.10;;;13.55;;
73900;SDS011;62235;52.160;7.526;2023-02-15T07:35:32;34.67;;;17.92;;
73900;SDS011;62235;52.160;7.526;2023-02-15T07:37:58;37.47;;;20.20;;
73900;SDS011;62235;52.160;7.526;2023-02-15T07:40:24;34.63;;;16.90;;
73900;SDS011;62235;52.160;7.526;2023-02-15T07:42:49;40.13;;;17.77;;
73900;SDS011;62235;52.160;7.526;2023-02-15T07:45:17;41.42;;;19.23;;
73900;SDS011;62235;52.160;7.526;2023-02-15T07:47:43;42.22;;;21.10;;
73900;SDS011;62235;52.160;7.526;2023-02-15T07:50:08;33.95;;;15.68;;
73900;SDS011;62235;52.160;7.526;2023-02-15T07:52:34;39.83;;;19.02;;
73900;SDS011;62235;52.160;7.526;2023-02-15T07:54:59;36.50;;;18.30;;
73900;SDS011;62235;52.160;7.526;2023-02-15T07:57:24;38.20;;;18.10;;
73900;SDS011;62235;52.160;7.526;2023-02-15T07:59:50;34.85;;;16.65;;
73900;SDS011;62235;52.160;7.526;2023-02-15T08:02:15;37.17;;;18.23;;
73900;SDS011;62235;52.160;7.526;2023-02-15T08:04:40;46.70;;;20.30;;
73900;SDS011;62235;52.160;7.526;2023-02-15T08:07:06;44.60;;;21.17;;
73900;SDS011;62235;52.160;7.526;2023-02-15T08:09:32;45.90;;;19.42;;
73900;SDS011;62235;52.160;7.526;2023-02-15T08:11:57;38.30;;;18.90;;
73900;SDS011;62235;52.160;7.526;2023-02-15T08:14:22;33.90;;;17.13;;
73900;SDS011;62235;52.160;7.526;2023-02-15T08:16:52;37.30;;;16.67;;
73900;SDS011;62235;52.160;7.526;2023-02-15T08:19:21;39.45;;;17.88;;
73900;SDS011;62235;52.160;7.526;2023-02-15T08:22:01;37.88;;;17.92;;
73900;SDS011;62235;52.160;7.526;2023-02-15T08:24:29;38.10;;;17.55;;
73900;SDS011;62235;52.160;7.526;2023-02-15T08:26:56;40.55;;;17.23;;
73900;SDS011;62235;52.160;7.526;2023-02-15T08:29:24;36.90;;;16.52;;
73900;SDS011;62235;52.160;7.526;2023-02-15T08:32:01;34.50;;;16.83;;
73900;SDS011;62235;52.160;7.526;2023-02-15T08:34:29;39.20;;;18.23;;
73900;SDS011;62235;52.160;7.526;2023-02-15T08:36:55;39.35;;;17.80;;
73900;SDS011;62235;52.160;7.526;2023-02-15T08:39:21;35.20;;;17.00;;
73900;SDS011;62235;52.160;7.526;2023-02-15T08:41:47;38.08;;;17.02;;
73900;SDS011;62235;52.160;7.526;2023-02-15T08:44:13;40.55;;;17.67;;
73900;SDS011;62235;52.160;7.526;2023-02-15T08:46:41;42.50;;;23.48;;
73900;SDS011;62235;52.160;7.526;2023-02-15T08:49:08;41.50;;;19.70;;
73900;SDS011;62235;52.160;7.526;2023-02-15T08:51:35;36.72;;;16.55;;
73900;SDS011;62235;52.160;7.526;2023-02-15T08:54:05;42.22;;;19.60;;
73900;SDS011;62235;52.160;7.526;2023-02-15T08:56:33;39.03;;;19.27;;
73900;SDS011;62235;52.160;7.526;2023-02-15T08:59:00;30.95;;;15.88;;
73900;SDS011;62235;52.160;7.526;2023-02-15T09:01:28;32.63;;;15.38;;
73900;SDS011;62235;52.160;7.526;2023-02-15T09:03:55;30.35;;;13.98;;
73900;SDS011;62235;52.160;7.526;2023-02-15T09:06:22;25.88;;;13.65;;
73900;SDS011;62235;52.160;7.526;2023-02-15T09:08:48;28.40;;;13.52;;
73900;SDS011;62235;52.160;7.526;2023-02-15T09:11:15;24.27;;;13.65;;
73900;SDS011;62235;52.160;7.526;2023-02-15T09:13:49;28.17;;;13.40;;
73900;SDS011;62235;52.160;7.526;2023-02-15T09:16:15;24.45;;;11.02;;
73900;SDS011;62235;52.160;7.526;2023-02-15T09:18:41;26.05;;;13.73;;
73900;SDS011;62235;52.160;7.526;2023-02-15T09:21:08;26.00;;;12.70;;
73900;SDS011;62235;52.160;7.526;2023-02-15T09:23:35;23.35;;;11.90;;
73900;SDS011;62235;52.160;7.526;2023-02-15T09:26:07;26.55;;;12.38;;
73900;SDS011;62235;52.160;7.526;2023-02-15T09:28:34;21.50;;;10.63;;
73900;SDS011;62235;52.160;7.526;2023-02-15T09:31:15;22.15;;;11.98;;
73900;SDS011;62235;52.160;7.526;2023-02-15T09:33:43;23.88;;;11.75;;
73900;SDS011;62235;52.160;7.526;2023-02-15T09:36:29;21.65;;;11.98;;
73900;SDS011;62235;52.160;7.526;2023-02-15T09:39:09;21.88;;;11.52;;
73900;SDS011;62235;52.160;7.526;2023-02-15T09:41:41;22.45;;;11.48;;
73900;SDS011;62235;52.160;7.526;2023-02-15T09:47:24;27.20;;;12.52;;
73900;SDS011;62235;52.160;7.526;2023-02-15T09:58:20;25.70;;;12.35;;
73900;SDS011;62235;52.160;7.526;2023-02-15T10:01:15;26.95;;;12.82;;
73900;SDS011;62235;52.160;7.526;2023-02-15T10:09:42;23.90;;;12.32;;
73900;SDS011;62235;52.160;7.526;2023-02-15T10:15:38;58.15;;;16.15;;
73900;SDS011;62235;52.160;7.526;2023-02-15T10:21:39;56.03;;;17.17;;
73900;SDS011;62235;52.160;7.526;2023-02-15T10:24:27;27.92;;;12.55;;
73900;SDS011;62235;52.160;7.526;2023-02-15T10:27:03;31.13;;;12.85;;
73900;SDS011;62235;52.160;7.526;2023-02-15T10:32:42;26.73;;;13.73;;
73900;SDS011;62235;52.160;7.526;2023-02-15T10:35:20;46.03;;;14.75;;
73900;SDS011;62235;52.160;7.526;2023-02-15T10:49:15;33.80;;;15.60;;
73900;SDS011;62235;52.160;7.526;2023-02-15T10:54:22;35.17;;;15.82;;
73900;SDS011;62235;52.160;7.526;2023-02-15T11:02:03;30.52;;;14.02;;
73900;SDS011;62235;52.160;7.526;2023-02-15T11:04:39;31.35;;;15.25;;
73900;SDS011;62235;52.160;7.526;2023-02-15T11:07:08;28.33;;;15.25;;
73900;SDS011;62235;52.160;7.526;2023-02-15T11:09:41;34.17;;;16.52;;
73900;SDS011;62235;52.160;7.526;2023-02-15T11:12:11;29.42;;;15.10;;
73900;SDS011;62235;52.160;7.526;2023-02-15T11:14:41;26.63;;;14.82;;
73900;SDS011;62235;52.160;7.526;2023-02-15T11:17:21;31.48;;;16.42;;
73900;SDS011;62235;52.160;7.526;2023-02-15T11:19:55;28.50;;;14.23;;
73900;SDS011;62235;52.160;7.526;2023-02-15T11:22:27;33.13;;;16.35;;
73900;SDS011;62235;52.160;7.526;2023-02-15T11:24:52;30.85;;;18.10;;
73900;SDS011;62235;52.160;7.526;2023-02-15T11:27:23;31.52;;;15.73;;
73900;SDS011;62235;52.160;7.526;2023-02-15T11:29:57;30.60;;;16.10;;
73900;SDS011;62235;52.160;7.526;2023-02-15T11:32:30;31.13;;;15.45;;
73900;SDS011;62235;52.160;7.526;2023-02-15T11:35:10;34.53;;;17.08;;
73900;SDS011;62235;52.160;7.526;2023-02-15T11:37:46;56.28;;;18.77;;
73900;SDS011;62235;52.160;7.526;2023-02-15T11:42:49;33.60;;;15.02;;
73900;SDS011;62235;52.160;7.526;2023-02-15T11:45:30;43.05;;;16.05;;
73900;SDS011;62235;52.160;7.526;2023-02-15T11:47:57;31.10;;;17.15;;
73900;SDS011;62235;52.160;7.526;2023-02-15T11:50:24;28.52;;;15.80;;
73900;SDS011;62235;52.160;7.526;2023-02-15T11:52:57;34.78;;;16.20;;
73900;SDS011;62235;52.160;7.526;2023-02-15T11:55:24;39.58;;;16.50;;
73900;SDS011;62235;52.160;7.526;2023-02-15T11:57:51;27.45;;;15.07;;
73900;SDS011;62235;52.160;7.526;2023-02-15T12:03:02;35.13;;;15.95;;
73900;SDS011;62235;52.160;7.526;2023-02-15T12:05:40;39.15;;;17.23;;
73900;SDS011;62235;52.160;7.526;2023-02-15T12:08:17;28.63;;;14.63;;
73900;SDS011;62235;52.160;7.526;2023-02-15T12:10:46;27.65;;;15.68;;
73900;SDS011;62235;52.160;7.526;2023-02-15T12:13:20;38.53;;;17.30;;
73900;SDS011;62235;52.160;7.526;2023-02-15T12:15:47;28.60;;;15.95;;
73900;SDS011;62235;52.160;7.526;2023-02-15T12:21:09;29.30;;;15.90;;
73900;SDS011;62235;52.160;7.526;2023-02-15T12:23:41;27.40;;;14.35;;
73900;SDS011;62235;52.160;7.526;2023-02-15T12:26:28;30.70;;;16.10;;
73900;SDS011;62235;52.160;7.526;2023-02-15T12:28:56;36.83;;;16.55;;
73900;SDS011;62235;52.160;7.526;2023-02-15T12:31:36;34.97;;;18.95;;
73900;SDS011;62235;52.160;7.526;2023-02-15T12:34:38;31.02;;;16.23;;
73900;SDS011;62235;52.160;7.526;2023-02-15T12:37:09;32.88;;;17.05;;
73900;SDS011;62235;52.160;7.526;2023-02-15T12:39:36;40.22;;;18.42;;
73900;SDS011;62235;52.160;7.526;2023-02-15T12:42:15;30.40;;;15.18;;
73900;SDS011;62235;52.160;7.526;2023-02-15T12:44:52;33.08;;;15.48;;
73900;SDS011;62235;52.160;7.526;2023-02-15T12:47:19;33.28;;;15.90;;
73900;SDS011;62235;52.160;7.526;2023-02-15T12:49:45;31.88;;;17.20;;
73900;SDS011;62235;52.160;7.526;2023-02-15T12:52:30;38.90;;;16.73;;
73900;SDS011;62235;52.160;7.526;2023-02-15T12:54:56;34.60;;;15.60;;
73900;SDS011;62235;52.160;7.526;2023-02-15T12:57:35;33.45;;;17.45;;
73900;SDS011;62235;52.160;7.526;2023-02-15T13:02:41;33.00;;;16.08;;
73900;SDS011;62235;52.160;7.526;2023-02-15T13:07:55;31.25;;;16.02;;
73900;SDS011;62235;52.160;7.526;2023-02-15T13:10:28;38.20;;;19.73;;
73900;SDS011;62235;52.160;7.526;2023-02-15T13:12:56;34.53;;;16.90;;
73900;SDS011;62235;52.160;7.526;2023-02-15T13:15:23;37.35;;;18.20;;
73900;SDS011;62235;52.160;7.526;2023-02-15T13:17:51;41.25;;;18.55;;
73900;SDS011;62235;52.160;7.526;2023-02-15T13:20:18;35.97;;;18.38;;
73900;SDS011;62235;52.160;7.526;2023-02-15T13:22:47;35.97;;;17.17;;
73900;SDS011;62235;52.160;7.526;2023-02-15T13:25:19;29.80;;;15.82;;
73900;SDS011;62235;52.160;7.526;2023-02-15T13:32:52;34.63;;;15.20;;
73900;SDS011;62235;52.160;7.526;2023-02-15T13:35:21;43.20;;;18.33;;
73900;SDS011;62235;52.160;7.526;2023-02-15T13:38:00;35.47;;;17.27;;
73900;SDS011;62235;52.160;7.526;2023-02-15T13:40:33;37.65;;;16.75;;
73900;SDS011;62235;52.160;7.526;2023-02-15T13:43:04;29.17;;;15.95;;
73900;SDS011;62235;52.160;7.526;2023-02-15T13:45:38;34.40;;;16.85;;
73900;SDS011;62235;52.160;7.526;2023-02-15T13:48:19;31.58;;;17.27;;
73900;SDS011;62235;52.160;7.526;2023-02-15T13:50:52;36.75;;;17.30;;
73900;SDS011;62235;52.160;7.526;2023-02-15T13:56:25;31.08;;;15.85;;
73900;SDS011;62235;52.160;7.526;2023-02-15T14:01:50;34.33;;;16.67;;
73900;SDS011;62235;52.160;7.526;2023-02-15T14:12:42;37.33;;;18.08;;
73900;SDS011;62235;52.160;7.526;2023-02-15T14:15:38;38.38;;;16.45;;
73900;SDS011;62235;52.160;7.526;2023-02-15T14:18:24;36.45;;;18.23;;
73900;SDS011;62235;52.160;7.526;2023-02-15T14:27:26;35.88;;;17.70;;
73900;SDS011;62235;52.160;7.526;2023-02-15T14:29:56;32.38;;;16.50;;
73900;SDS011;62235;52.160;7.526;2023-02-15T14:32:27;28.17;;;14.95;;
73900;SDS011;62235;52.160;7.526;2023-02-15T14:37:39;29.50;;;14.52;;
73900;SDS011;62235;52.160;7.526;2023-02-15T14:45:55;35.53;;;14.95;;
73900;SDS011;62235;52.160;7.526;2023-02-15T14:50:56;35.67;;;14.90;;
73900;SDS011;62235;52.160;7.526;2023-02-15T14:56:04;36.45;;;19.10;;
73900;SDS011;62235;52.160;7.526;2023-02-15T14:58:54;32.97;;;15.85;;
73900;SDS011;62235;52.160;7.526;2023-02-15T15:01:25;32.53;;;16.05;;
73900;SDS011;62235;52.160;7.526;2023-02-15T15:03:53;51.78;;;17.73;;
73900;SDS011;62235;52.160;7.526;2023-02-15T15:06:26;33.90;;;17.00;;
73900;SDS011;62235;52.160;7.526;2023-02-15T15:08:53;33.45;;;15.23;;
73900;SDS011;62235;52.160;7.526;2023-02-15T15:13:56;29.63;;;14.55;;
73900;SDS011;62235;52.160;7.526;2023-02-15T15:18:59;33.08;;;16.35;;
73900;SDS011;62235;52.160;7.526;2023-02-15T15:29:46;31.65;;;15.20;;
73900;SDS011;62235;52.160;7.526;2023-02-15T15:32:11;32.42;;;15.25;;
73900;SDS011;62235;52.160;7.526;2023-02-15T15:34:51;36.45;;;16.20;;
73900;SDS011;62235;52.160;7.526;2023-02-15T15:42:49;32.27;;;14.80;;
73900;SDS011;62235;52.160;7.526;2023-02-15T15:45:38;30.65;;;14.63;;
73900;SDS011;62235;52.160;7.526;2023-02-15T15:48:38;37.67;;;16.45;;
73900;SDS011;62235;52.160;7.526;2023-02-15T15:51:09;32.13;;;15.57;;
73900;SDS011;62235;52.160;7.526;2023-02-15T15:53:40;36.03;;;16.60;;
73900;SDS011;62235;52.160;7.526;2023-02-15T15:56:12;31.40;;;15.43;;
73900;SDS011;62235;52.160;7.526;2023-02-15T15:58:41;40.15;;;16.98;;
73900;SDS011;62235;52.160;7.526;2023-02-15T16:01:09;42.03;;;16.13;;
73900;SDS011;62235;52.160;7.526;2023-02-15T16:03:36;33.63;;;15.80;;
73900;SDS011;62235;52.160;7.526;2023-02-15T16:06:01;35.10;;;14.35;;
73900;SDS011;62235;52.160;7.526;2023-02-15T16:10:55;33.83;;;15.32;;
73900;SDS011;62235;52.160;7.526;2023-02-15T16:13:21;37.10;;;14.77;;
73900;SDS011;62235;52.160;7.526;2023-02-15T16:15:46;39.28;;;15.57;;
73900;SDS011;62235;52.160;7.526;2023-02-15T16:18:15;36.13;;;14.95;;
73900;SDS011;62235;52.160;7.526;2023-02-15T16:20:42;36.80;;;16.17;;
73900;SDS011;62235;52.160;7.526;2023-02-15T16:26:20;37.05;;;14.77;;
73900;SDS011;62235;52.160;7.526;2023-02-15T16:28:56;36.42;;;14.85;;
73900;SDS011;62235;52.160;7.526;2023-02-15T16:31:21;37.80;;;15.37;;
73900;SDS011;62235;52.160;7.526;2023-02-15T16:33:47;32.72;;;14.63;;
73900;SDS011;62235;52.160;7.526;2023-02-15T16:36:23;35.47;;;14.85;;
73900;SDS011;62235;52.160;7.526;2023-02-15T16:41:15;39.63;;;16.20;;
73900;SDS011;62235;52.160;7.526;2023-02-15T16:55:58;39.92;;;19.33;;
73900;SDS011;62235;52.160;7.526;2023-02-15T16:58:32;41.83;;;19.15;;
73900;SDS011;62235;52.160;7.526;2023-02-15T17:01:11;41.97;;;17.05;;
73900;SDS011;62235;52.160;7.526;2023-02-15T17:03:39;35.40;;;16.92;;
73900;SDS011;62235;52.160;7.526;2023-02-15T17:06:17;46.47;;;19.15;;
73900;SDS011;62235;52.160;7.526;2023-02-15T17:08:44;46.88;;;19.40;;
73900;SDS011;62235;52.160;7.526;2023-02-15T17:11:16;39.75;;;19.00;;
73900;SDS011;62235;52.160;7.526;2023-02-15T17:16:27;37.83;;;17.17;;
73900;SDS011;62235;52.160;7.526;2023-02-15T17:18:54;41.47;;;17.52;;
73900;SDS011;62235;52.160;7.526;2023-02-15T17:21:24;45.70;;;21.77;;
73900;SDS011;62235;52.160;7.526;2023-02-15T17:23:56;49.03;;;24.52;;
73900;SDS011;62235;52.160;7.526;2023-02-15T17:26:29;53.42;;;25.30;;
73900;SDS011;62235;52.160;7.526;2023-02-15T17:28:58;49.25;;;23.67;;
73900;SDS011;62235;52.160;7.526;2023-02-15T17:31:25;46.08;;;20.65;;
73900;SDS011;62235;52.160;7.526;2023-02-15T17:33:53;43.60;;;20.65;;